createdAt,value
2018-11-10T00:02:29.989Z,48.43
2018-11-10T00:07:51.915Z,52.97
2018-11-10T00:13:13.915Z,57.33
2018-11-10T00:18:35.636Z,56.53
2018-11-10T00:23:57.652Z,53.40
2018-11-10T00:29:19.449Z,52.37
2018-11-10T00:34:41.657Z,54.53
2018-11-10T00:40:03.441Z,58.17
2018-11-10T00:45:25.762Z,53.40
2018-11-10T00:50:47.669Z,53.37
2018-11-10T00:56:09.926Z,43.60
2018-11-10T01:01:31.787Z,51.07
2018-11-10T01:06:54.863Z,45.47
2018-11-10T01:12:16.986Z,28.27
2018-11-10T01:17:38.887Z,37.13
2018-11-10T01:23:01.042Z,27.33
2018-11-10T01:28:23.025Z,29.00
2018-11-10T01:33:44.813Z,28.23
2018-11-10T01:39:08.487Z,27.77
2018-11-10T01:44:30.357Z,27.07
2018-11-10T01:49:52.458Z,26.10
2018-11-10T01:55:14.517Z,37.43
2018-11-10T02:00:36.790Z,27.20
2018-11-10T02:05:58.636Z,35.93
2018-11-10T02:11:20.761Z,39.50
2018-11-10T02:16:42.746Z,38.20
2018-11-10T02:22:04.926Z,33.80
2018-11-10T02:27:27.209Z,34.60
2018-11-10T02:32:49.240Z,35.03
2018-11-10T02:38:11.407Z,43.37
2018-11-10T02:43:33.551Z,43.30
2018-11-10T02:48:55.328Z,50.73
2018-11-10T02:54:17.321Z,73.83
2018-11-10T02:59:39.098Z,64.57
2018-11-10T03:05:00.866Z,64.80
2018-11-10T03:10:23.057Z,72.17
2018-11-10T03:15:44.838Z,58.30
2018-11-10T03:21:07.070Z,51.37
2018-11-10T03:26:28.933Z,43.43
2018-11-10T03:31:51.141Z,52.37
2018-11-10T03:37:13.216Z,53.23
2018-11-10T03:42:35.237Z,58.73
2018-11-10T03:47:57.304Z,44.83
2018-11-10T03:53:19.424Z,49.40
2018-11-10T03:58:41.603Z,65.87
2018-11-10T04:04:03.779Z,54.63
2018-11-10T04:09:25.558Z,49.50
2018-11-10T04:14:47.726Z,43.53
2018-11-10T04:20:10.585Z,55.73
2018-11-10T04:25:33.068Z,52.77
2018-11-10T04:30:55.111Z,44.57
2018-11-10T04:36:17.088Z,43.50
2018-11-10T04:41:39.127Z,47.33
2018-11-10T04:47:00.974Z,43.83
2018-11-10T04:52:22.968Z,39.90
2018-11-10T04:57:45.044Z,47.20
2018-11-10T05:03:07.327Z,50.70
2018-11-10T05:08:29.055Z,41.90
2018-11-10T05:13:50.689Z,37.97
2018-11-10T05:19:12.804Z,46.23
2018-11-10T05:24:34.874Z,45.03
2018-11-10T05:52:50.014Z,40.40
2018-11-10T05:58:12.113Z,45.63
2018-11-10T06:03:34.228Z,42.73
2018-11-10T06:08:55.995Z,48.50
2018-11-10T06:14:18.100Z,47.90
2018-11-10T06:19:39.984Z,45.83
2018-11-10T06:25:02.092Z,45.40
2018-11-10T06:30:24.083Z,47.73
2018-11-10T06:35:46.277Z,44.27
2018-11-10T06:41:08.623Z,41.30
2018-11-10T06:46:30.484Z,39.07
2018-11-10T06:51:52.601Z,42.60
2018-11-10T06:57:16.226Z,40.07
2018-11-10T07:02:38.056Z,44.80
2018-11-10T07:07:59.905Z,39.80
2018-11-10T07:13:21.603Z,33.70
2018-11-10T07:18:43.716Z,40.80
2018-11-10T07:24:05.477Z,39.50
2018-11-10T07:29:27.969Z,41.17
2018-11-10T07:34:49.688Z,44.47
2018-11-10T07:40:12.842Z,46.83
2018-11-10T07:45:34.749Z,41.13
2018-11-10T07:50:56.500Z,47.30
2018-11-10T07:56:18.632Z,39.03
2018-11-10T08:01:40.351Z,37.90
2018-11-10T08:07:02.529Z,37.00
2018-11-10T08:12:24.311Z,36.33
2018-11-10T08:17:46.451Z,44.97
2018-11-10T08:23:08.335Z,46.33
2018-11-10T08:28:30.020Z,42.27
2018-11-10T08:33:52.135Z,41.97
2018-11-10T08:39:13.965Z,43.47
2018-11-10T08:44:36.071Z,35.33
2018-11-10T08:49:58.129Z,34.70
2018-11-10T08:55:21.399Z,43.23
2018-11-10T09:00:43.430Z,39.17
2018-11-10T09:06:05.089Z,39.37
2018-11-10T09:11:27.484Z,31.67
2018-11-10T09:16:49.627Z,30.17
2018-11-10T09:22:11.512Z,34.00
2018-11-10T09:27:33.070Z,30.07
2018-11-10T09:32:55.192Z,32.87
2018-11-10T09:38:16.964Z,33.33
2018-11-10T09:43:38.599Z,37.33
2018-11-10T09:49:00.737Z,29.57
2018-11-10T09:54:22.384Z,37.57
2018-11-10T09:59:44.589Z,33.03
2018-11-10T10:05:06.837Z,33.93
2018-11-10T10:10:28.688Z,35.53
2018-11-10T10:15:50.475Z,34.20
2018-11-10T10:21:12.597Z,42.93
2018-11-10T10:26:34.811Z,35.03
2018-11-10T10:31:56.839Z,31.33
2018-11-10T10:37:22.814Z,28.47
2018-11-10T10:42:45.431Z,29.43
2018-11-10T10:48:07.236Z,31.83
2018-11-10T10:53:29.079Z,25.13
2018-11-10T10:58:51.132Z,29.60
2018-11-10T11:04:17.815Z,37.73
2018-11-10T11:09:39.871Z,36.30
2018-11-10T11:15:01.553Z,26.67
2018-11-10T11:20:25.023Z,32.40
2018-11-10T11:25:46.934Z,31.70
2018-11-10T11:31:09.101Z,9.37
2018-11-10T11:36:31.015Z,8.73
2018-11-10T11:41:52.687Z,11.80
2018-11-10T11:47:14.956Z,12.27
2018-11-10T11:52:37.044Z,10.53
2018-11-10T11:57:58.941Z,16.33
2018-11-10T12:03:21.350Z,19.20
2018-11-10T12:08:43.214Z,16.97
2018-11-10T12:14:05.307Z,20.30
2018-11-10T12:19:27.598Z,15.30
2018-11-10T12:24:49.660Z,18.50
2018-11-10T12:30:12.089Z,19.60
2018-11-10T12:35:33.887Z,21.87
2018-11-10T12:40:55.699Z,29.93
2018-11-10T12:46:17.958Z,16.13
2018-11-10T12:51:39.871Z,12.50
2018-11-10T12:57:01.959Z,10.13
2018-11-10T13:02:23.676Z,12.83
2018-11-10T13:07:47.026Z,11.73
2018-11-10T13:13:08.976Z,11.67
2018-11-10T13:18:30.638Z,16.17
2018-11-10T13:23:52.290Z,15.67
2018-11-10T13:29:14.271Z,14.80
2018-11-10T13:34:36.398Z,11.60
2018-11-10T13:39:58.293Z,7.90
2018-11-10T13:45:19.937Z,13.37
2018-11-10T13:50:42.177Z,10.10
2018-11-10T13:56:04.012Z,12.37
2018-11-10T14:01:26.681Z,10.90
2018-11-10T14:06:48.809Z,11.03
2018-11-10T14:12:10.665Z,12.40
2018-11-10T14:17:32.832Z,12.40
2018-11-10T14:22:54.719Z,6.80
2018-11-10T14:28:16.812Z,10.07
2018-11-10T14:33:38.640Z,14.20
2018-11-10T14:39:00.904Z,12.13
2018-11-10T14:44:22.768Z,18.97
2018-11-10T14:49:44.984Z,16.67
2018-11-10T14:55:07.111Z,13.87
2018-11-10T15:00:30.120Z,21.03
2018-11-10T15:05:52.183Z,14.00
2018-11-10T15:11:14.298Z,10.30
2018-11-10T15:16:36.201Z,14.63
2018-11-10T15:21:58.223Z,14.30
2018-11-10T15:27:20.061Z,16.57
2018-11-10T15:32:43.136Z,22.57
2018-11-10T15:38:05.671Z,17.57
2018-11-10T15:43:28.211Z,19.17
2018-11-10T15:48:49.805Z,23.03
2018-11-10T15:54:11.822Z,22.60
2018-11-10T15:59:33.469Z,22.90
2018-11-10T16:04:55.612Z,20.23
2018-11-10T16:10:17.328Z,22.70
2018-11-10T16:15:38.900Z,29.23
2018-11-10T16:21:00.996Z,22.07
2018-11-10T16:26:22.677Z,19.90
2018-11-10T16:31:44.897Z,23.63
2018-11-10T16:37:07.291Z,23.17
2018-11-10T16:42:29.516Z,21.87
2018-11-10T16:47:51.173Z,30.47
2018-11-10T16:53:13.075Z,26.00
2018-11-10T16:58:34.877Z,26.30
2018-11-10T17:03:57.369Z,18.47
2018-11-10T17:09:19.058Z,20.97
2018-11-10T17:14:40.679Z,20.63
2018-11-10T17:20:02.740Z,25.43
2018-11-10T17:25:24.448Z,35.93
2018-11-10T17:30:46.443Z,28.80
2018-11-10T17:36:08.631Z,34.93
2018-11-10T17:41:30.435Z,29.10
2018-11-10T17:46:52.450Z,36.97
2018-11-10T17:52:14.435Z,34.53
2018-11-10T17:57:36.770Z,36.77
2018-11-10T18:02:58.587Z,32.20
2018-11-10T18:08:20.612Z,34.47
2018-11-10T18:13:42.397Z,29.93
2018-11-10T18:19:04.829Z,29.93
2018-11-10T18:24:27.161Z,24.33
2018-11-10T18:29:48.901Z,33.07
2018-11-10T18:35:11.869Z,35.40
2018-11-10T18:40:34.111Z,38.80
2018-11-10T18:45:56.026Z,31.00
2018-11-10T18:51:18.103Z,41.97
2018-11-10T18:56:40.192Z,43.00
2018-11-10T19:02:02.375Z,35.23
2018-11-10T19:07:24.222Z,47.60
2018-11-10T19:12:46.389Z,42.40
2018-11-10T19:18:08.302Z,29.70
2018-11-10T19:23:30.305Z,34.30
2018-11-10T19:28:52.133Z,37.30
2018-11-10T19:34:14.252Z,39.33
2018-11-10T19:39:35.973Z,34.00
2018-11-10T19:44:58.081Z,32.47
2018-11-10T19:50:20.049Z,29.87
2018-11-10T19:55:42.172Z,35.40
2018-11-10T20:01:03.885Z,23.93
2018-11-10T20:06:26.082Z,26.03
2018-11-10T20:11:47.751Z,20.30
2018-11-10T20:17:10.156Z,19.60
2018-11-10T20:22:32.000Z,24.13
2018-11-10T20:27:53.839Z,19.97
2018-11-10T20:33:16.174Z,32.63
2018-11-10T20:38:37.868Z,25.30
2018-11-10T20:44:00.001Z,33.67
2018-11-10T20:49:22.182Z,20.40
2018-11-10T20:54:44.188Z,21.83
2018-11-10T21:00:06.918Z,27.70
2018-11-10T21:05:28.729Z,28.27
2018-11-10T21:10:51.003Z,28.73
2018-11-10T21:16:12.819Z,29.30
2018-11-10T21:21:34.676Z,19.70
2018-11-10T21:26:56.573Z,19.50
2018-11-10T21:32:18.287Z,22.00
2018-11-10T21:37:40.395Z,18.83
2018-11-10T21:43:02.448Z,23.23
2018-11-10T21:48:24.456Z,23.87
2018-11-10T21:53:46.233Z,19.00
2018-11-10T21:59:07.977Z,25.50
2018-11-10T22:04:29.983Z,25.17
2018-11-10T22:09:51.820Z,30.63
2018-11-10T22:15:15.463Z,21.17
2018-11-10T22:20:40.122Z,27.80
2018-11-10T22:26:01.805Z,26.10
2018-11-10T22:31:23.807Z,23.33
2018-11-10T22:36:49.645Z,25.57
2018-11-10T22:42:11.521Z,27.10
2018-11-10T22:47:33.237Z,19.53
2018-11-10T22:52:55.273Z,15.63
2018-11-10T22:58:19.953Z,20.33
2018-11-10T23:03:45.096Z,25.90
2018-11-10T23:09:12.280Z,26.00
2018-11-10T23:14:36.445Z,22.23
2018-11-10T23:20:02.290Z,18.10
2018-11-10T23:25:27.366Z,19.67
2018-11-10T23:30:52.153Z,18.70
2018-11-10T23:36:15.292Z,11.20
2018-11-10T23:41:39.958Z,18.43
2018-11-10T23:47:05.767Z,23.63
2018-11-10T23:52:29.624Z,20.40
2018-11-10T23:57:53.460Z,27.30
